Time,TemperatureF,DewpointF,PressureIn,WindDirection,WindDirectionDegrees,WindSpeedMPH,WindSpeedGustMPH,Humidity,HourlyPrecipIn,Conditions,Clouds,dailyrainin,SoftwareType,DateUTC
2013-11-12 00:04:00,56.4,51.9,30.28,SE,134,0.0,-999.0,85,0.00,,,0.00,WeatherSnoop3.0,2013-11-12 06:04:00,
2013-11-12 00:09:00,56.6,52.1,30.28,SE,134,0.0,-999.0,85,0.00,,,0.00,WeatherSnoop3.0,2013-11-12 06:09:00,
2013-11-12 00:14:00,56.6,51.8,30.28,SE,134,0.0,-999.0,84,0.00,,,0.00,WeatherSnoop3.0,2013-11-12 06:14:00,
2013-11-12 00:19:00,56.5,51.7,30.28,SE,134,0.0,-999.0,84,0.00,,,0.00,WeatherSnoop3.0,2013-11-12 06:19:00,
2013-11-12 00:24:00,56.3,51.8,30.28,SE,134,0.0,-999.0,85,0.00,,,0.00,WeatherSnoop3.0,2013-11-12 06:24:00,
2013-11-12 00:29:00,56.0,51.6,30.28,SE,134,0.0,-999.0,85,0.00,,,0.00,WeatherSnoop3.0,2013-11-12 06:29:00,
2013-11-12 00:34:00,55.9,51.5,30.28,SE,134,0.0,-999.0,85,0.00,,,0.00,WeatherSnoop3.0,2013-11-12 06:34:00,
2013-11-12 00:39:00,55.8,51.7,30.28,SE,134,0.0,-999.0,86,0.00,,,0.00,WeatherSnoop3.0,2013-11-12 06:39:00,
2013-11-12 00:44:00,55.5,51.4,30.28,SE,134,0.0,-999.0,86,0.00,,,0.00,WeatherSnoop3.0,2013-11-12 06:44:00,
2013-11-12 00:49:00,55.3,51.2,30.29,SE,134,0.0,-999.0,86,0.00,,,0.00,WeatherSnoop3.0,2013-11-12 06:49:00,
2013-11-12 00:54:00,55.1,51.0,30.29,SE,134,0.0,-999.0,86,0.00,,,0.00,WeatherSnoop3.0,2013-11-12 06:54:00,
2013-11-12 00:59:00,55.1,51.6,30.29,SE,134,0.0,-999.0,88,0.00,,,0.00,WeatherSnoop3.0,2013-11-12 06:59:00,
2013-11-12 01:04:00,55.1,51.6,30.29,SE,134,0.0,-999.0,88,0.00,,,0.00,WeatherSnoop3.0,2013-11-12 07:04:00,
2013-11-12 01:09:00,54.9,51.4,30.29,SE,134,0.0,-999.0,88,0.00,,,0.00,WeatherSnoop3.0,2013-11-12 07:09:00,
2013-11-12 01:14:00,54.8,51.3,30.29,SE,134,0.0,-999.0,88,0.00,,,0.00,WeatherSnoop3.0,2013-11-12 07:14:00,
2013-11-12 01:19:00,54.5,51.0,30.29,SE,134,0.0,-999.0,88,0.00,,,0.00,WeatherSnoop3.0,2013-11-12 07:19:00,
2013-11-12 01:24:00,54.3,50.8,30.29,SE,134,0.0,-999.0,88,0.00,,,0.00,WeatherSnoop3.0,2013-11-12 07:24:00,
2013-11-12 01:29:00,54.1,50.9,30.29,SE,134,0.0,-999.0,89,0.00,,,0.00,WeatherSnoop3.0,2013-11-12 07:29:00,
2013-11-12 01:34:00,54.0,50.8,30.29,SE,134,0.0,-999.0,89,0.00,,,0.00,WeatherSnoop3.0,2013-11-12 07:34:00,
2013-11-12 01:39:00,53.9,50.7,30.29,SE,134,0.0,-999.0,89,0.00,,,0.00,WeatherSnoop3.0,2013-11-12 07:39:00,
2013-11-12 01:44:00,53.7,50.5,30.30,SE,134,0.0,-999.0,89,0.00,,,0.00,WeatherSnoop3.0,2013-11-12 07:44:00,
2013-11-12 01:49:00,53.6,50.4,30.30,SE,134,0.0,-999.0,89,0.00,,,0.00,WeatherSnoop3.0,2013-11-12 07:49:00,
2013-11-12 01:54:00,53.5,50.6,30.30,SE,134,0.0,-999.0,90,0.00,,,0.00,WeatherSnoop3.0,2013-11-12 07:54:00,
2013-11-12 01:59:00,53.4,50.5,30.30,SE,134,0.0,-999.0,90,0.00,,,0.00,WeatherSnoop3.0,2013-11-12 07:59:00,
2013-11-12 02:04:00,53.5,50.9,30.30,SE,134,1.0,-999.0,91,0.00,,,0.00,WeatherSnoop3.0,2013-11-12 08:04:00,
2013-11-12 02:09:00,53.7,51.1,30.31,NNW,345,8.0,-999.0,91,0.00,,,0.00,WeatherSnoop3.0,2013-11-12 08:09:00,
2013-11-12 02:15:00,54.5,52.2,30.32,NNE,14,5.0,-999.0,92,0.00,,,0.00,WeatherSnoop3.0,2013-11-12 08:15:00,
2013-11-12 02:20:00,54.9,52.6,30.32,NNE,27,4.0,-999.0,92,0.00,,,0.00,WeatherSnoop3.0,2013-11-12 08:20:00,
2013-11-12 02:25:00,55.5,52.6,30.32,North,355,5.0,-999.0,90,0.00,,,0.00,WeatherSnoop3.0,2013-11-12 08:25:00,
2013-11-12 02:31:00,55.8,52.6,30.33,North,5,5.0,-999.0,89,0.00,,,0.00,WeatherSnoop3.0,2013-11-12 08:31:00,
2013-11-12 02:36:00,56.2,52.7,30.33,North,10,0.0,-999.0,88,0.00,,,0.00,WeatherSnoop3.0,2013-11-12 08:36:00,
2013-11-12 02:41:00,56.6,52.8,30.33,North,11,3.0,-999.0,87,0.00,,,0.00,WeatherSnoop3.0,2013-11-12 08:41:00,
2013-11-12 02:46:00,56.7,52.6,30.33,NNE,31,1.0,-999.0,86,0.00,,,0.00,WeatherSnoop3.0,2013-11-12 08:46:00,
2013-11-12 02:51:00,57.0,52.9,30.33,North,349,5.0,-999.0,86,0.00,,,0.00,WeatherSnoop3.0,2013-11-12 08:51:00,
2013-11-12 02:56:00,57.3,53.1,30.33,NNE,19,5.0,-999.0,86,0.00,,,0.00,WeatherSnoop3.0,2013-11-12 08:56:00,
2013-11-12 03:02:00,57.6,53.4,30.33,NNE,24,2.0,-999.0,86,0.00,,,0.00,WeatherSnoop3.0,2013-11-12 09:02:00,
2013-11-12 03:07:00,57.8,53.6,30.33,North,5,5.0,-999.0,86,0.00,,,0.00,WeatherSnoop3.0,2013-11-12 09:07:00,
2013-11-12 03:12:00,58.2,54.0,30.34,NNE,20,5.0,-999.0,86,0.00,,,0.00,WeatherSnoop3.0,2013-11-12 09:12:00,
2013-11-12 03:17:00,58.5,54.3,30.34,NNE,24,4.0,-999.0,86,0.00,,,0.00,WeatherSnoop3.0,2013-11-12 09:17:00,
2013-11-12 03:22:00,59.0,55.1,30.34,NNE,15,4.0,-999.0,87,0.00,,,0.00,WeatherSnoop3.0,2013-11-12 09:22:00,
2013-11-12 03:27:00,59.5,55.6,30.34,North,11,10.0,-999.0,87,0.00,,,0.00,WeatherSnoop3.0,2013-11-12 09:27:00,
2013-11-12 03:32:00,60.2,56.3,30.35,NNE,22,13.0,-999.0,87,0.00,,,0.00,WeatherSnoop3.0,2013-11-12 09:32:00,
2013-11-12 03:37:00,60.3,55.8,30.35,NNE,20,9.0,-999.0,85,0.00,,,0.00,WeatherSnoop3.0,2013-11-12 09:37:00,
2013-11-12 03:43:00,59.6,54.4,30.36,NNE,24,7.0,-999.0,83,0.00,,,0.00,WeatherSnoop3.0,2013-11-12 09:43:00,
2013-11-12 03:48:00,58.5,53.4,30.36,NNE,20,7.0,-999.0,83,0.00,,,0.00,WeatherSnoop3.0,2013-11-12 09:48:00,
2013-11-12 03:53:00,57.8,53.3,30.36,North,9,11.0,-999.0,85,0.00,,,0.00,WeatherSnoop3.0,2013-11-12 09:53:00,
2013-11-12 03:58:00,56.9,52.4,30.37,NNE,14,7.0,-999.0,85,0.00,,,0.00,WeatherSnoop3.0,2013-11-12 09:58:00,
2013-11-12 04:03:00,56.1,51.3,30.37,North,9,8.0,-999.0,84,0.00,,,0.00,WeatherSnoop3.0,2013-11-12 10:03:00,
2013-11-12 04:09:00,55.3,50.5,30.38,North,11,5.0,-999.0,84,0.00,,,0.00,WeatherSnoop3.0,2013-11-12 10:09:00,
2013-11-12 04:14:00,54.8,50.1,30.38,NNE,15,8.0,-999.0,84,0.00,,,0.00,WeatherSnoop3.0,2013-11-12 10:14:00,
2013-11-12 04:19:00,54.4,49.7,30.39,NNE,15,10.0,-999.0,84,0.00,,,0.00,WeatherSnoop3.0,2013-11-12 10:19:00,
2013-11-12 04:24:00,54.1,49.7,30.39,North,360,15.0,-999.0,85,0.00,,,0.00,WeatherSnoop3.0,2013-11-12 10:24:00,
2013-11-12 04:29:00,53.5,49.1,30.40,North,355,7.0,-999.0,85,0.00,,,0.00,WeatherSnoop3.0,2013-11-12 10:29:00,
2013-11-12 04:34:00,53.2,48.8,30.40,North,355,7.0,-999.0,85,0.00,,,0.00,WeatherSnoop3.0,2013-11-12 10:34:00,
2013-11-12 04:39:00,52.6,48.2,30.41,North,350,5.0,-999.0,85,0.00,,,0.00,WeatherSnoop3.0,2013-11-12 10:39:00,
2013-11-12 04:44:00,52.0,47.6,30.41,NNW,348,14.0,-999.0,85,0.00,,,0.00,WeatherSnoop3.0,2013-11-12 10:44:00,
2013-11-12 04:49:00,51.3,46.6,30.42,North,5,9.0,-999.0,84,0.00,,,0.00,WeatherSnoop3.0,2013-11-12 10:49:00,
2013-11-12 04:55:00,51.0,46.3,30.42,ENE,57,7.0,-999.0,84,0.00,,,0.00,WeatherSnoop3.0,2013-11-12 10:55:00,
2013-11-12 05:00:00,50.6,45.3,30.42,NNE,32,13.0,-999.0,82,0.00,,,0.00,WeatherSnoop3.0,2013-11-12 11:00:00,
2013-11-12 05:05:00,50.4,45.1,30.42,North,355,12.0,-999.0,82,0.00,,,0.00,WeatherSnoop3.0,2013-11-12 11:05:00,
2013-11-12 05:10:00,50.3,45.3,30.43,North,10,7.0,-999.0,83,0.00,,,0.00,WeatherSnoop3.0,2013-11-12 11:10:00,
2013-11-12 05:16:00,50.0,44.7,30.43,NNW,347,11.0,-999.0,82,0.00,,,0.00,WeatherSnoop3.0,2013-11-12 11:16:00,
2013-11-12 05:21:00,49.9,44.6,30.43,North,9,12.0,-999.0,82,0.00,,,0.00,WeatherSnoop3.0,2013-11-12 11:21:00,
2013-11-12 05:26:00,49.9,44.9,30.44,NE,49,5.0,-999.0,83,0.00,,,0.00,WeatherSnoop3.0,2013-11-12 11:26:00,
2013-11-12 05:31:00,49.7,44.7,30.44,NNE,32,8.0,-999.0,83,0.00,,,0.00,WeatherSnoop3.0,2013-11-12 11:31:00,
2013-11-12 05:37:00,49.6,44.7,30.45,North,5,6.0,-999.0,83,0.00,,,0.00,WeatherSnoop3.0,2013-11-12 11:37:00,
2013-11-12 05:42:00,49.3,44.0,30.45,NNE,28,9.0,-999.0,82,0.00,,,0.00,WeatherSnoop3.0,2013-11-12 11:42:00,
2013-11-12 05:47:00,48.9,43.3,30.45,NNE,18,3.0,-999.0,81,0.00,,,0.00,WeatherSnoop3.0,2013-11-12 11:47:00,
2013-11-12 05:53:00,48.5,42.9,30.46,NE,48,5.0,-999.0,81,0.00,,,0.00,WeatherSnoop3.0,2013-11-12 11:53:00,
2013-11-12 05:58:00,48.4,42.8,30.47,NE,41,13.0,-999.0,81,0.00,,,0.00,WeatherSnoop3.0,2013-11-12 11:58:00,
2013-11-12 06:03:00,48.2,42.6,30.47,NNE,22,7.0,-999.0,81,0.00,,,0.00,WeatherSnoop3.0,2013-11-12 12:03:00,
2013-11-12 06:09:00,48.1,42.2,30.48,NW,325,15.0,-999.0,80,0.00,,,0.00,WeatherSnoop3.0,2013-11-12 12:09:00,
2013-11-12 06:14:00,47.9,42.0,30.48,NNE,31,19.0,-999.0,80,0.00,,,0.00,WeatherSnoop3.0,2013-11-12 12:14:00,
2013-11-12 06:19:00,47.8,41.9,30.48,NNW,329,12.0,-999.0,80,0.00,,,0.00,WeatherSnoop3.0,2013-11-12 12:19:00,
2013-11-12 06:24:00,47.8,41.9,30.48,NNW,340,12.0,-999.0,80,0.00,,,0.00,WeatherSnoop3.0,2013-11-12 12:24:00,
2013-11-12 06:29:00,47.8,41.9,30.48,NNE,22,13.0,-999.0,80,0.00,,,0.00,WeatherSnoop3.0,2013-11-12 12:29:00,
2013-11-12 06:34:00,47.8,42.3,30.49,NNE,26,6.0,-999.0,81,0.00,,,0.00,WeatherSnoop3.0,2013-11-12 12:34:00,
2013-11-12 06:39:00,47.8,41.9,30.49,NE,34,7.0,-999.0,80,0.00,,,0.00,WeatherSnoop3.0,2013-11-12 12:39:00,
2013-11-12 06:45:00,47.7,41.8,30.49,NNW,343,6.0,-999.0,80,0.00,,,0.00,WeatherSnoop3.0,2013-11-12 12:45:00,
2013-11-12 06:50:00,47.6,41.7,30.50,NNE,30,7.0,-999.0,80,0.00,,,0.00,WeatherSnoop3.0,2013-11-12 12:50:00,
2013-11-12 06:55:00,47.6,41.7,30.50,North,350,5.0,-999.0,80,0.00,,,0.00,WeatherSnoop3.0,2013-11-12 12:55:00,
2013-11-12 07:00:00,47.6,42.1,30.50,NNE,19,10.0,-999.0,81,0.00,,,0.00,WeatherSnoop3.0,2013-11-12 13:00:00,
2013-11-12 07:05:00,47.4,41.5,30.51,NNW,345,15.0,-999.0,80,0.00,,,0.00,WeatherSnoop3.0,2013-11-12 13:05:00,
2013-11-12 07:10:00,47.2,41.0,30.51,NE,44,7.0,-999.0,79,0.00,,,0.00,WeatherSnoop3.0,2013-11-12 13:10:00,
2013-11-12 07:16:00,46.9,40.7,30.52,NNE,30,11.0,-999.0,79,0.00,,,0.00,WeatherSnoop3.0,2013-11-12 13:16:00,
2013-11-12 07:21:00,46.7,40.2,30.52,North,10,10.0,-999.0,78,0.00,,,0.00,WeatherSnoop3.0,2013-11-12 13:21:00,
2013-11-12 07:26:00,46.4,39.3,30.52,North,5,11.0,-999.0,76,0.00,,,0.00,WeatherSnoop3.0,2013-11-12 13:26:00,
2013-11-12 07:31:00,46.3,39.2,30.52,North,5,11.0,-999.0,76,0.00,,,0.00,WeatherSnoop3.0,2013-11-12 13:31:00,
2013-11-12 07:36:00,46.3,38.8,30.53,NNE,17,7.0,-999.0,75,0.00,,,0.00,WeatherSnoop3.0,2013-11-12 13:36:00,
2013-11-12 07:41:00,46.3,39.2,30.53,NNE,14,11.0,-999.0,76,0.00,,,0.00,WeatherSnoop3.0,2013-11-12 13:41:00,
2013-11-12 07:46:00,46.3,38.8,30.54,NNE,21,10.0,-999.0,75,0.00,,,0.00,WeatherSnoop3.0,2013-11-12 13:46:00,
2013-11-12 07:51:00,46.2,38.4,30.54,NNW,348,6.0,-999.0,74,0.00,,,0.00,WeatherSnoop3.0,2013-11-12 13:51:00,
2013-11-12 07:57:00,46.1,38.6,30.54,NE,34,9.0,-999.0,75,0.00,,,0.00,WeatherSnoop3.0,2013-11-12 13:57:00,
2013-11-12 08:02:00,46.1,38.3,30.54,North,355,18.0,-999.0,74,0.00,,,0.00,WeatherSnoop3.0,2013-11-12 14:02:00,
2013-11-12 08:08:00,46.0,38.2,30.55,NNW,342,8.0,-999.0,74,0.00,,,0.00,WeatherSnoop3.0,2013-11-12 14:08:00,
2013-11-12 08:13:00,46.0,37.8,30.55,NE,36,7.0,-999.0,73,0.00,,,0.00,WeatherSnoop3.0,2013-11-12 14:13:00,
2013-11-12 08:18:00,45.9,37.7,30.55,NNE,18,16.0,-999.0,73,0.00,,,0.00,WeatherSnoop3.0,2013-11-12 14:18:00,
2013-11-12 08:23:00,45.9,37.7,30.56,NNE,15,12.0,-999.0,73,0.00,,,0.00,WeatherSnoop3.0,2013-11-12 14:23:00,
2013-11-12 08:28:00,45.9,37.4,30.56,NE,36,9.0,-999.0,72,0.00,,,0.00,WeatherSnoop3.0,2013-11-12 14:28:00,
2013-11-12 08:33:00,45.8,37.3,30.56,NE,53,7.0,-999.0,72,0.00,,,0.00,WeatherSnoop3.0,2013-11-12 14:33:00,
2013-11-12 08:38:00,45.9,37.7,30.57,North,5,7.0,-999.0,73,0.00,,,0.00,WeatherSnoop3.0,2013-11-12 14:38:00,
2013-11-12 08:43:00,45.9,37.4,30.57,North,360,9.0,-999.0,72,0.00,,,0.00,WeatherSnoop3.0,2013-11-12 14:43:00,
2013-11-12 08:49:00,45.8,36.9,30.57,NNW,337,7.0,-999.0,71,0.00,,,0.00,WeatherSnoop3.0,2013-11-12 14:49:00,
2013-11-12 08:54:00,45.6,37.1,30.57,NNE,14,10.0,-999.0,72,0.00,,,0.00,WeatherSnoop3.0,2013-11-12 14:54:00,
2013-11-12 08:59:00,45.6,36.7,30.58,NNE,33,13.0,-999.0,71,0.00,,,0.00,WeatherSnoop3.0,2013-11-12 14:59:00,
2013-11-12 09:04:00,45.3,36.1,30.58,NNE,16,13.0,-999.0,70,0.00,,,0.00,WeatherSnoop3.0,2013-11-12 15:04:00,
2013-11-12 09:09:00,45.1,36.3,30.58,North,360,11.0,-999.0,71,0.00,,,0.00,WeatherSnoop3.0,2013-11-12 15:09:00,
2013-11-12 09:14:00,45.1,36.6,30.58,NE,46,4.0,-999.0,72,0.00,,,0.00,WeatherSnoop3.0,2013-11-12 15:14:00,
2013-11-12 09:19:00,45.3,36.8,30.58,NNE,22,13.0,-999.0,72,0.00,,,0.00,WeatherSnoop3.0,2013-11-12 15:19:00,
2013-11-12 09:24:00,45.4,36.6,30.59,NW,306,7.0,-999.0,71,0.00,,,0.00,WeatherSnoop3.0,2013-11-12 15:24:00,
2013-11-12 09:29:00,45.5,36.7,30.59,North,5,6.0,-999.0,71,0.00,,,0.00,WeatherSnoop3.0,2013-11-12 15:29:00,
2013-11-12 09:34:00,45.6,36.4,30.60,NNE,24,11.0,-999.0,70,0.00,,,0.00,WeatherSnoop3.0,2013-11-12 15:34:00,
2013-11-12 09:39:00,45.4,35.8,30.60,NNW,329,16.0,-999.0,69,0.00,,,0.00,WeatherSnoop3.0,2013-11-12 15:39:00,
2013-11-12 09:45:00,45.4,35.8,30.60,NNE,27,7.0,-999.0,69,0.00,,,0.00,WeatherSnoop3.0,2013-11-12 15:45:00,
2013-11-12 09:50:00,44.9,35.0,30.60,NW,304,12.0,-999.0,68,0.00,,,0.00,WeatherSnoop3.0,2013-11-12 15:50:00,
2013-11-12 09:55:00,44.8,35.3,30.60,NW,315,11.0,-999.0,69,0.00,,,0.00,WeatherSnoop3.0,2013-11-12 15:55:00,
2013-11-12 10:00:00,44.5,35.0,30.61,NE,40,7.0,-999.0,69,0.00,,,0.00,WeatherSnoop3.0,2013-11-12 16:00:00,
2013-11-12 10:06:00,45.0,35.1,30.60,NNE,19,7.0,-999.0,68,0.00,,,0.00,WeatherSnoop3.0,2013-11-12 16:06:00,
2013-11-12 10:11:00,45.9,35.9,30.60,North,360,9.0,-999.0,68,0.00,,,0.00,WeatherSnoop3.0,2013-11-12 16:11:00,
2013-11-12 10:16:00,46.9,36.1,30.60,NNE,33,8.0,-999.0,66,0.00,,,0.00,WeatherSnoop3.0,2013-11-12 16:16:00,
2013-11-12 10:21:00,46.7,35.6,30.60,NE,44,5.0,-999.0,65,0.00,,,0.00,WeatherSnoop3.0,2013-11-12 16:21:00,
2013-11-12 10:26:00,47.4,36.2,30.60,NNW,335,6.0,-999.0,65,0.00,,,0.00,WeatherSnoop3.0,2013-11-12 16:26:00,
2013-11-12 10:31:00,47.6,35.6,30.60,North,350,7.0,-999.0,63,0.00,,,0.00,WeatherSnoop3.0,2013-11-12 16:31:00,
2013-11-12 10:36:00,47.7,36.1,30.60,NNE,33,7.0,-999.0,64,0.00,,,0.00,WeatherSnoop3.0,2013-11-12 16:36:00,
2013-11-12 10:42:00,47.7,35.7,30.60,NNE,19,14.0,-999.0,63,0.00,,,0.00,WeatherSnoop3.0,2013-11-12 16:42:00,
2013-11-12 10:47:00,47.8,35.4,30.61,NNE,28,11.0,-999.0,62,0.00,,,0.00,WeatherSnoop3.0,2013-11-12 16:47:00,
2013-11-12 10:52:00,47.7,34.9,30.61,NNE,22,18.0,-999.0,61,0.00,,,0.00,WeatherSnoop3.0,2013-11-12 16:52:00,
2013-11-12 10:57:00,48.0,35.6,30.61,NNE,19,10.0,-999.0,62,0.00,,,0.00,WeatherSnoop3.0,2013-11-12 16:57:00,
2013-11-12 11:02:00,47.9,34.7,30.61,NW,317,12.0,-999.0,60,0.00,,,0.00,WeatherSnoop3.0,2013-11-12 17:02:00,
2013-11-12 11:07:00,48.1,34.9,30.61,NNE,28,9.0,-999.0,60,0.00,,,0.00,WeatherSnoop3.0,2013-11-12 17:07:00,
2013-11-12 11:12:00,48.2,35.0,30.60,North,355,13.0,-999.0,60,0.00,,,0.00,WeatherSnoop3.0,2013-11-12 17:12:00,
2013-11-12 11:18:00,48.6,34.5,30.60,NNE,19,21.0,-999.0,58,0.00,,,0.00,WeatherSnoop3.0,2013-11-12 17:18:00,
2013-11-12 11:23:00,48.4,34.3,30.60,North,355,10.0,-999.0,58,0.00,,,0.00,WeatherSnoop3.0,2013-11-12 17:23:00,
2013-11-12 11:28:00,48.9,34.8,30.61,NNW,343,7.0,-999.0,58,0.00,,,0.00,WeatherSnoop3.0,2013-11-12 17:28:00,
2013-11-12 11:33:00,49.2,34.2,30.61,North,350,6.0,-999.0,56,0.00,,,0.00,WeatherSnoop3.0,2013-11-12 17:33:00,
2013-11-12 11:39:00,49.0,34.4,30.60,NNE,15,5.0,-999.0,57,0.00,,,0.00,WeatherSnoop3.0,2013-11-12 17:39:00,
2013-11-12 11:44:00,49.2,33.7,30.60,NNW,327,12.0,-999.0,55,0.00,,,0.00,WeatherSnoop3.0,2013-11-12 17:44:00,
2013-11-12 11:49:00,49.5,33.1,30.60,NNE,13,13.0,-999.0,53,0.00,,,0.00,WeatherSnoop3.0,2013-11-12 17:49:00,
2013-11-12 11:54:00,49.4,33.5,30.60,NW,323,7.0,-999.0,54,0.00,,,0.00,WeatherSnoop3.0,2013-11-12 17:54:00,
2013-11-12 11:59:00,49.3,31.9,30.60,NNE,26,8.0,-999.0,51,0.00,,,0.00,WeatherSnoop3.0,2013-11-12 17:59:00,
2013-11-12 12:04:00,49.6,32.2,30.60,NNE,12,9.0,-999.0,51,0.00,,,0.00,WeatherSnoop3.0,2013-11-12 18:04:00,
2013-11-12 12:10:00,50.1,31.7,30.60,NE,46,9.0,-999.0,49,0.00,,,0.00,WeatherSnoop3.0,2013-11-12 18:10:00,
2013-11-12 12:15:00,49.7,29.8,30.60,NNE,22,13.0,-999.0,46,0.00,,,0.00,WeatherSnoop3.0,2013-11-12 18:15:00,
2013-11-12 12:20:00,49.9,30.0,30.60,NNE,31,6.0,-999.0,46,0.00,,,0.00,WeatherSnoop3.0,2013-11-12 18:20:00,
2013-11-12 12:25:00,50.2,31.8,30.60,North,355,12.0,-999.0,49,0.00,,,0.00,WeatherSnoop3.0,2013-11-12 18:25:00,
2013-11-12 12:30:00,49.8,31.9,30.60,North,5,7.0,-999.0,50,0.00,,,0.00,WeatherSnoop3.0,2013-11-12 18:30:00,
2013-11-12 12:36:00,49.9,31.0,30.59,NNE,28,9.0,-999.0,48,0.00,,,0.00,WeatherSnoop3.0,2013-11-12 18:36:00,
2013-11-12 12:41:00,49.9,31.0,30.60,North,5,9.0,-999.0,48,0.00,,,0.00,WeatherSnoop3.0,2013-11-12 18:41:00,
2013-11-12 12:46:00,49.9,31.5,30.60,North,5,10.0,-999.0,49,0.00,,,0.00,WeatherSnoop3.0,2013-11-12 18:46:00,
2013-11-12 12:51:00,49.7,30.8,30.59,North,5,7.0,-999.0,48,0.00,,,0.00,WeatherSnoop3.0,2013-11-12 18:51:00,
2013-11-12 12:56:00,49.9,30.5,30.59,North,350,12.0,-999.0,47,0.00,,,0.00,WeatherSnoop3.0,2013-11-12 18:56:00,
2013-11-12 13:01:00,50.1,30.7,30.59,NE,51,11.0,-999.0,47,0.00,,,0.00,WeatherSnoop3.0,2013-11-12 19:01:00,
2013-11-12 13:07:00,50.6,30.6,30.59,NE,34,12.0,-999.0,46,0.00,,,0.00,WeatherSnoop3.0,2013-11-12 19:07:00,
2013-11-12 13:12:00,50.4,29.9,30.59,NNW,344,3.0,-999.0,45,0.00,,,0.00,WeatherSnoop3.0,2013-11-12 19:12:00,
2013-11-12 13:17:00,50.5,30.5,30.59,North,5,5.0,-999.0,46,0.00,,,0.00,WeatherSnoop3.0,2013-11-12 19:17:00,
2013-11-12 13:22:00,50.3,29.8,30.59,NNE,17,6.0,-999.0,45,0.00,,,0.00,WeatherSnoop3.0,2013-11-12 19:22:00,
2013-11-12 13:28:00,50.4,29.9,30.59,North,9,8.0,-999.0,45,0.00,,,0.00,WeatherSnoop3.0,2013-11-12 19:28:00,
2013-11-12 13:33:00,50.8,29.1,30.59,North,5,6.0,-999.0,43,0.00,,,0.00,WeatherSnoop3.0,2013-11-12 19:33:00,
2013-11-12 13:38:00,50.3,29.2,30.59,NNE,22,14.0,-999.0,44,0.00,,,0.00,WeatherSnoop3.0,2013-11-12 19:38:00,
2013-11-12 13:44:00,50.5,29.4,30.59,NNE,22,6.0,-999.0,44,0.00,,,0.00,WeatherSnoop3.0,2013-11-12 19:44:00,
2013-11-12 13:49:00,50.7,29.0,30.58,NNE,26,7.0,-999.0,43,0.00,,,0.00,WeatherSnoop3.0,2013-11-12 19:49:00,
2013-11-12 13:54:00,51.3,29.6,30.58,North,360,9.0,-999.0,43,0.00,,,0.00,WeatherSnoop3.0,2013-11-12 19:54:00,
2013-11-12 14:00:00,51.3,29.6,30.58,NNE,24,3.0,-999.0,43,0.00,,,0.00,WeatherSnoop3.0,2013-11-12 20:00:00,
2013-11-12 14:05:00,51.5,29.2,30.58,NE,34,4.0,-999.0,42,0.00,,,0.00,WeatherSnoop3.0,2013-11-12 20:05:00,
2013-11-12 14:10:00,51.4,27.3,30.58,NNE,16,8.0,-999.0,39,0.00,,,0.00,WeatherSnoop3.0,2013-11-12 20:10:00,
2013-11-12 14:15:00,51.1,27.6,30.58,NNW,331,8.0,-999.0,40,0.00,,,0.00,WeatherSnoop3.0,2013-11-12 20:15:00,
2013-11-12 14:20:00,50.9,27.4,30.58,NNE,24,11.0,-999.0,40,0.00,,,0.00,WeatherSnoop3.0,2013-11-12 20:20:00,
2013-11-12 14:25:00,50.9,26.8,30.59,NNW,338,9.0,-999.0,39,0.00,,,0.00,WeatherSnoop3.0,2013-11-12 20:25:00,
2013-11-12 14:30:00,50.7,26.0,30.59,NNE,28,12.0,-999.0,38,0.00,,,0.00,WeatherSnoop3.0,2013-11-12 20:30:00,
2013-11-12 14:35:00,50.8,26.7,30.59,NE,39,9.0,-999.0,39,0.00,,,0.00,WeatherSnoop3.0,2013-11-12 20:35:00,
2013-11-12 14:41:00,51.1,27.0,30.59,North,355,10.0,-999.0,39,0.00,,,0.00,WeatherSnoop3.0,2013-11-12 20:41:00,
2013-11-12 14:46:00,51.0,26.9,30.59,NNE,15,15.0,-999.0,39,0.00,,,0.00,WeatherSnoop3.0,2013-11-12 20:46:00,
2013-11-12 14:51:00,50.9,27.4,30.59,NNW,346,5.0,-999.0,40,0.00,,,0.00,WeatherSnoop3.0,2013-11-12 20:51:00,
2013-11-12 14:56:00,51.2,27.1,30.59,NNE,33,8.0,-999.0,39,0.00,,,0.00,WeatherSnoop3.0,2013-11-12 20:56:00,
2013-11-12 15:02:00,50.7,26.0,30.59,North,351,11.0,-999.0,38,0.00,,,0.00,WeatherSnoop3.0,2013-11-12 21:02:00,
2013-11-12 15:07:00,50.8,26.1,30.59,NNE,19,7.0,-999.0,38,0.00,,,0.00,WeatherSnoop3.0,2013-11-12 21:07:00,
2013-11-12 15:12:00,50.9,25.6,30.59,NNW,336,5.0,-999.0,37,0.00,,,0.00,WeatherSnoop3.0,2013-11-12 21:12:00,
2013-11-12 15:17:00,50.6,25.9,30.59,North,5,11.0,-999.0,38,0.00,,,0.00,WeatherSnoop3.0,2013-11-12 21:17:00,
2013-11-12 15:22:00,50.6,25.3,30.59,NNE,30,7.0,-999.0,37,0.00,,,0.00,WeatherSnoop3.0,2013-11-12 21:22:00,
2013-11-12 15:27:00,50.4,25.1,30.59,NNW,340,14.0,-999.0,37,0.00,,,0.00,WeatherSnoop3.0,2013-11-12 21:27:00,
2013-11-12 15:32:00,50.3,25.0,30.59,NNE,13,9.0,-999.0,37,0.00,,,0.00,WeatherSnoop3.0,2013-11-12 21:32:00,
2013-11-12 15:37:00,50.4,26.4,30.59,NNW,346,14.0,-999.0,39,0.00,,,0.00,WeatherSnoop3.0,2013-11-12 21:37:00,
2013-11-12 15:42:00,50.1,24.9,30.59,North,9,11.0,-999.0,37,0.00,,,0.00,WeatherSnoop3.0,2013-11-12 21:42:00,
2013-11-12 15:47:00,49.9,25.9,30.60,ENE,57,4.0,-999.0,39,0.00,,,0.00,WeatherSnoop3.0,2013-11-12 21:47:00,
2013-11-12 15:52:00,49.9,25.3,30.60,NNE,33,9.0,-999.0,38,0.00,,,0.00,WeatherSnoop3.0,2013-11-12 21:52:00,
2013-11-12 15:58:00,49.7,25.1,30.60,NNE,28,10.0,-999.0,38,0.00,,,0.00,WeatherSnoop3.0,2013-11-12 21:58:00,
2013-11-12 16:03:00,49.5,23.7,30.60,NE,36,6.0,-999.0,36,0.00,,,0.00,WeatherSnoop3.0,2013-11-12 22:03:00,
2013-11-12 16:09:00,49.4,23.6,30.60,NW,324,5.0,-999.0,36,0.00,,,0.00,WeatherSnoop3.0,2013-11-12 22:09:00,
2013-11-12 16:14:00,49.2,24.7,30.60,NNE,23,6.0,-999.0,38,0.00,,,0.00,WeatherSnoop3.0,2013-11-12 22:14:00,
2013-11-12 16:19:00,49.0,24.5,30.60,North,360,4.0,-999.0,38,0.00,,,0.00,WeatherSnoop3.0,2013-11-12 22:19:00,
2013-11-12 16:24:00,48.9,25.0,30.60,North,5,5.0,-999.0,39,0.00,,,0.00,WeatherSnoop3.0,2013-11-12 22:24:00,
2013-11-12 16:30:00,48.7,23.6,30.60,NNE,28,6.0,-999.0,37,0.00,,,0.00,WeatherSnoop3.0,2013-11-12 22:30:00,
2013-11-12 16:35:00,48.6,22.9,30.61,North,5,7.0,-999.0,36,0.00,,,0.00,WeatherSnoop3.0,2013-11-12 22:35:00,
2013-11-12 16:40:00,48.4,23.3,30.61,NNE,24,9.0,-999.0,37,0.00,,,0.00,WeatherSnoop3.0,2013-11-12 22:40:00,
2013-11-12 16:45:00,48.1,23.1,30.61,NE,44,5.0,-999.0,37,0.00,,,0.00,WeatherSnoop3.0,2013-11-12 22:45:00,
2013-11-12 16:50:00,47.9,22.9,30.61,NNE,28,5.0,-999.0,37,0.00,,,0.00,WeatherSnoop3.0,2013-11-12 22:50:00,
2013-11-12 16:55:00,47.7,23.4,30.61,NNE,16,6.0,-999.0,38,0.00,,,0.00,WeatherSnoop3.0,2013-11-12 22:55:00,
2013-11-12 17:00:00,47.5,23.8,30.61,NNE,22,10.0,-999.0,39,0.00,,,0.00,WeatherSnoop3.0,2013-11-12 23:00:00,
2013-11-12 17:05:00,47.2,23.5,30.61,NE,40,4.0,-999.0,39,0.00,,,0.00,WeatherSnoop3.0,2013-11-12 23:05:00,
2013-11-12 17:11:00,47.0,23.3,30.61,North,5,3.0,-999.0,39,0.00,,,0.00,WeatherSnoop3.0,2013-11-12 23:11:00,
2013-11-12 17:16:00,46.7,23.7,30.61,North,11,3.0,-999.0,40,0.00,,,0.00,WeatherSnoop3.0,2013-11-12 23:16:00,
2013-11-12 17:21:00,46.5,23.5,30.62,NNW,336,4.0,-999.0,40,0.00,,,0.00,WeatherSnoop3.0,2013-11-12 23:21:00,
2013-11-12 17:26:00,46.3,23.3,30.62,NNW,331,3.0,-999.0,40,0.00,,,0.00,WeatherSnoop3.0,2013-11-12 23:26:00,
2013-11-12 17:31:00,45.9,23.0,30.62,NNE,25,6.0,-999.0,40,0.00,,,0.00,WeatherSnoop3.0,2013-11-12 23:31:00,
2013-11-12 17:37:00,45.6,22.1,30.62,NNE,19,6.0,-999.0,39,0.00,,,0.00,WeatherSnoop3.0,2013-11-12 23:37:00,
2013-11-12 17:42:00,45.4,21.9,30.62,NNE,14,8.0,-999.0,39,0.00,,,0.00,WeatherSnoop3.0,2013-11-12 23:42:00,
2013-11-12 17:47:00,45.1,22.2,30.62,NE,45,3.0,-999.0,40,0.00,,,0.00,WeatherSnoop3.0,2013-11-12 23:47:00,
2013-11-12 17:52:00,44.9,22.1,30.62,NNE,27,9.0,-999.0,40,0.00,,,0.00,WeatherSnoop3.0,2013-11-12 23:52:00,
2013-11-12 17:57:00,44.7,22.5,30.62,NE,34,4.0,-999.0,41,0.00,,,0.00,WeatherSnoop3.0,2013-11-12 23:57:00,
2013-11-12 18:02:00,44.5,22.9,30.63,North,5,3.0,-999.0,42,0.00,,,0.00,WeatherSnoop3.0,2013-11-13 00:02:00,
2013-11-12 18:07:00,44.3,23.2,30.63,North,5,8.0,-999.0,43,0.00,,,0.00,WeatherSnoop3.0,2013-11-13 00:07:00,
2013-11-12 18:13:00,44.2,23.1,30.63,NNE,13,4.0,-999.0,43,0.00,,,0.00,WeatherSnoop3.0,2013-11-13 00:13:00,
2013-11-12 18:18:00,44.1,22.5,30.63,NNE,26,8.0,-999.0,42,0.00,,,0.00,WeatherSnoop3.0,2013-11-13 00:18:00,
2013-11-12 18:23:00,44.1,23.1,30.63,NNE,28,5.0,-999.0,43,0.00,,,0.00,WeatherSnoop3.0,2013-11-13 00:23:00,
2013-11-12 18:28:00,43.9,22.9,30.63,NNE,19,4.0,-999.0,43,0.00,,,0.00,WeatherSnoop3.0,2013-11-13 00:28:00,
2013-11-12 18:33:00,43.8,22.8,30.64,North,11,6.0,-999.0,43,0.00,,,0.00,WeatherSnoop3.0,2013-11-13 00:33:00,
2013-11-12 18:38:00,43.7,22.7,30.64,NNE,12,13.0,-999.0,43,0.00,,,0.00,WeatherSnoop3.0,2013-11-13 00:38:00,
2013-11-12 18:43:00,43.6,22.6,30.64,NNE,21,6.0,-999.0,43,0.00,,,0.00,WeatherSnoop3.0,2013-11-13 00:43:00,
2013-11-12 18:49:00,43.3,22.9,30.64,NNE,26,6.0,-999.0,44,0.00,,,0.00,WeatherSnoop3.0,2013-11-13 00:49:00,
2013-11-12 18:54:00,43.1,23.2,30.65,NNE,22,4.0,-999.0,45,0.00,,,0.00,WeatherSnoop3.0,2013-11-13 00:54:00,
2013-11-12 18:59:00,42.8,23.5,30.65,NNE,24,5.0,-999.0,46,0.00,,,0.00,WeatherSnoop3.0,2013-11-13 00:59:00,
2013-11-12 19:05:00,42.5,23.2,30.65,North,11,4.0,-999.0,46,0.00,,,0.00,WeatherSnoop3.0,2013-11-13 01:05:00,
2013-11-12 19:10:00,42.4,23.1,30.65,NNW,340,6.0,-999.0,46,0.00,,,0.00,WeatherSnoop3.0,2013-11-13 01:10:00,
2013-11-12 19:15:00,42.2,22.9,30.65,NE,47,5.0,-999.0,46,0.00,,,0.00,WeatherSnoop3.0,2013-11-13 01:15:00,
2013-11-12 19:21:00,42.1,22.8,30.65,NNE,29,4.0,-999.0,46,0.00,,,0.00,WeatherSnoop3.0,2013-11-13 01:21:00,
2013-11-12 19:26:00,42.0,22.7,30.65,NNE,25,2.0,-999.0,46,0.00,,,0.00,WeatherSnoop3.0,2013-11-13 01:26:00,
2013-11-12 19:32:00,41.9,23.2,30.65,North,5,8.0,-999.0,47,0.00,,,0.00,WeatherSnoop3.0,2013-11-13 01:32:00,
2013-11-12 19:37:00,41.7,23.0,30.66,NNE,27,5.0,-999.0,47,0.00,,,0.00,WeatherSnoop3.0,2013-11-13 01:37:00,
2013-11-12 19:42:00,41.5,22.8,30.65,NNW,345,5.0,-999.0,47,0.00,,,0.00,WeatherSnoop3.0,2013-11-13 01:42:00,
2013-11-12 19:48:00,41.4,22.7,30.66,North,11,6.0,-999.0,47,0.00,,,0.00,WeatherSnoop3.0,2013-11-13 01:48:00,
2013-11-12 19:53:00,41.2,22.5,30.66,NNE,23,8.0,-999.0,47,0.00,,,0.00,WeatherSnoop3.0,2013-11-13 01:53:00,
2013-11-12 19:58:00,41.1,22.9,30.66,North,355,4.0,-999.0,48,0.00,,,0.00,WeatherSnoop3.0,2013-11-13 01:58:00,
2013-11-12 20:03:00,40.9,22.7,30.67,NNE,23,2.0,-999.0,48,0.00,,,0.00,WeatherSnoop3.0,2013-11-13 02:03:00,
2013-11-12 20:08:00,40.7,23.0,30.67,NNE,24,5.0,-999.0,49,0.00,,,0.00,WeatherSnoop3.0,2013-11-13 02:08:00,
2013-11-12 20:13:00,40.6,23.0,30.67,North,5,8.0,-999.0,49,0.00,,,0.00,WeatherSnoop3.0,2013-11-13 02:13:00,
2013-11-12 20:18:00,40.5,22.9,30.67,NNE,17,8.0,-999.0,49,0.00,,,0.00,WeatherSnoop3.0,2013-11-13 02:18:00,
2013-11-12 20:23:00,40.5,22.9,30.67,NNE,29,10.0,-999.0,49,0.00,,,0.00,WeatherSnoop3.0,2013-11-13 02:23:00,
2013-11-12 20:28:00,40.3,22.7,30.67,North,355,4.0,-999.0,49,0.00,,,0.00,WeatherSnoop3.0,2013-11-13 02:28:00,
2013-11-12 20:34:00,40.1,22.5,30.67,North,5,8.0,-999.0,49,0.00,,,0.00,WeatherSnoop3.0,2013-11-13 02:34:00,
2013-11-12 20:39:00,40.0,22.9,30.67,NNE,14,9.0,-999.0,50,0.00,,,0.00,WeatherSnoop3.0,2013-11-13 02:39:00,
2013-11-12 20:44:00,39.8,22.7,30.68,NNE,17,2.0,-999.0,50,0.00,,,0.00,WeatherSnoop3.0,2013-11-13 02:44:00,
2013-11-12 20:49:00,39.6,22.5,30.68,North,10,4.0,-999.0,50,0.00,,,0.00,WeatherSnoop3.0,2013-11-13 02:49:00,
2013-11-12 20:54:00,39.3,22.7,30.68,NNE,27,3.0,-999.0,51,0.00,,,0.00,WeatherSnoop3.0,2013-11-13 02:54:00,
2013-11-12 21:00:00,39.1,22.5,30.68,NNE,21,6.0,-999.0,51,0.00,,,0.00,WeatherSnoop3.0,2013-11-13 03:00:00,
2013-11-12 21:05:00,39.0,22.4,30.68,NNE,14,6.0,-999.0,51,0.00,,,0.00,WeatherSnoop3.0,2013-11-13 03:05:00,
2013-11-12 21:10:00,38.8,22.7,30.68,NNE,27,4.0,-999.0,52,0.00,,,0.00,WeatherSnoop3.0,2013-11-13 03:10:00,
2013-11-12 21:15:00,38.7,22.6,30.69,NNW,345,5.0,-999.0,52,0.00,,,0.00,WeatherSnoop3.0,2013-11-13 03:15:00,
2013-11-12 21:20:00,38.6,22.5,30.68,NNW,341,3.0,-999.0,52,0.00,,,0.00,WeatherSnoop3.0,2013-11-13 03:20:00,
2013-11-12 21:25:00,38.4,22.8,30.69,North,350,3.0,-999.0,53,0.00,,,0.00,WeatherSnoop3.0,2013-11-13 03:25:00,
2013-11-12 21:30:00,38.3,22.7,30.69,NNE,21,5.0,-999.0,53,0.00,,,0.00,WeatherSnoop3.0,2013-11-13 03:30:00,
2013-11-12 21:35:00,38.2,22.6,30.69,NNE,25,3.0,-999.0,53,0.00,,,0.00,WeatherSnoop3.0,2013-11-13 03:35:00,
2013-11-12 21:40:00,38.2,22.6,30.69,NNE,19,3.0,-999.0,53,0.00,,,0.00,WeatherSnoop3.0,2013-11-13 03:40:00,
2013-11-12 21:45:00,38.1,22.9,30.69,NNE,30,4.0,-999.0,54,0.00,,,0.00,WeatherSnoop3.0,2013-11-13 03:45:00,
2013-11-12 21:50:00,38.0,22.9,30.69,NNE,26,7.0,-999.0,54,0.00,,,0.00,WeatherSnoop3.0,2013-11-13 03:50:00,
2013-11-12 21:55:00,37.9,22.8,30.69,NNE,13,4.0,-999.0,54,0.00,,,0.00,WeatherSnoop3.0,2013-11-13 03:55:00,
2013-11-12 22:01:00,37.8,22.7,30.69,North,360,5.0,-999.0,54,0.00,,,0.00,WeatherSnoop3.0,2013-11-13 04:01:00,
2013-11-12 22:06:00,37.7,23.0,30.70,NNE,26,4.0,-999.0,55,0.00,,,0.00,WeatherSnoop3.0,2013-11-13 04:06:00,
2013-11-12 22:11:00,37.5,22.8,30.70,North,355,5.0,-999.0,55,0.00,,,0.00,WeatherSnoop3.0,2013-11-13 04:11:00,
2013-11-12 22:16:00,37.5,22.8,30.70,NNE,14,5.0,-999.0,55,0.00,,,0.00,WeatherSnoop3.0,2013-11-13 04:16:00,
2013-11-12 22:21:00,37.5,22.8,30.69,NNE,17,5.0,-999.0,55,0.00,,,0.00,WeatherSnoop3.0,2013-11-13 04:21:00,
2013-11-12 22:26:00,37.4,23.2,30.70,North,355,3.0,-999.0,56,0.00,,,0.00,WeatherSnoop3.0,2013-11-13 04:26:00,
2013-11-12 22:31:00,37.4,22.7,30.69,NNE,15,3.0,-999.0,55,0.00,,,0.00,WeatherSnoop3.0,2013-11-13 04:31:00,
2013-11-12 22:36:00,37.3,22.6,30.69,NNE,24,5.0,-999.0,55,0.00,,,0.00,WeatherSnoop3.0,2013-11-13 04:36:00,
2013-11-12 22:42:00,37.2,23.0,30.70,North,355,4.0,-999.0,56,0.00,,,0.00,WeatherSnoop3.0,2013-11-13 04:42:00,
2013-11-12 22:47:00,37.1,22.9,30.69,North,355,3.0,-999.0,56,0.00,,,0.00,WeatherSnoop3.0,2013-11-13 04:47:00,
2013-11-12 22:52:00,37.1,22.9,30.69,North,355,3.0,-999.0,56,0.00,,,0.00,WeatherSnoop3.0,2013-11-13 04:52:00,
2013-11-12 22:57:00,37.0,22.8,30.69,North,355,3.0,-999.0,56,0.00,,,0.00,WeatherSnoop3.0,2013-11-13 04:57:00,
2013-11-12 23:01:00,36.9,22.7,30.69,North,355,5.0,-999.0,56,0.00,,,0.00,WeatherSnoop3.0,2013-11-13 05:01:00,
2013-11-12 23:02:00,36.9,22.7,30.69,North,355,5.0,-999.0,56,0.00,,,0.00,WeatherSnoop3.0,2013-11-13 05:02:00,
2013-11-12 23:03:00,36.9,22.7,30.69,North,355,5.0,-999.0,56,0.00,,,0.00,WeatherSnoop3.0,2013-11-13 05:03:00,
2013-11-12 23:08:00,36.9,22.7,30.69,North,355,6.0,-999.0,56,0.00,,,0.00,WeatherSnoop3.0,2013-11-13 05:08:00,
2013-11-12 23:09:00,36.9,22.7,30.69,North,355,3.0,-999.0,56,0.00,,,0.00,WeatherSnoop3.0,2013-11-13 05:09:00,
2013-11-12 23:14:00,36.8,22.6,30.69,North,355,2.0,-999.0,56,0.00,,,0.00,WeatherSnoop3.0,2013-11-13 05:14:00,
2013-11-12 23:19:00,36.6,22.4,30.69,North,355,5.0,-999.0,56,0.00,,,0.00,WeatherSnoop3.0,2013-11-13 05:19:00,
2013-11-12 23:24:00,36.6,22.8,30.69,North,355,5.0,-999.0,57,0.00,,,0.00,WeatherSnoop3.0,2013-11-13 05:24:00,
2013-11-12 23:29:00,36.5,22.7,30.69,North,355,3.0,-999.0,57,0.00,,,0.00,WeatherSnoop3.0,2013-11-13 05:29:00,
2013-11-12 23:34:00,36.4,22.6,30.69,North,355,6.0,-999.0,57,0.00,,,0.00,WeatherSnoop3.0,2013-11-13 05:34:00,
2013-11-12 23:39:00,36.4,22.6,30.69,North,355,7.0,-999.0,57,0.00,,,0.00,WeatherSnoop3.0,2013-11-13 05:39:00,